createdAt,value
2018-09-03T00:01:13.817Z,15.60
2018-09-03T00:03:41.198Z,15.60
2018-09-03T00:06:08.641Z,15.60
2018-09-03T00:08:36.066Z,15.60
2018-09-03T00:11:03.586Z,15.60
2018-09-03T00:13:31.061Z,15.60
2018-09-03T00:15:58.452Z,15.60
2018-09-03T00:18:25.863Z,15.60
2018-09-03T00:20:53.247Z,15.70
2018-09-03T00:23:20.582Z,15.60
2018-09-03T00:25:47.922Z,15.70
2018-09-03T00:28:15.255Z,15.70
2018-09-03T00:30:42.777Z,15.70
2018-09-03T00:33:15.915Z,15.80
2018-09-03T00:35:49.050Z,15.70
2018-09-03T00:38:22.252Z,15.70
2018-09-03T00:40:55.522Z,15.70
2018-09-03T00:43:28.726Z,15.70
2018-09-03T00:46:01.754Z,15.70
2018-09-03T00:48:29.132Z,15.80
2018-09-03T00:50:56.514Z,15.70
2018-09-03T00:53:23.896Z,15.70
2018-09-03T00:55:51.229Z,15.70
2018-09-03T00:58:18.798Z,15.60
2018-09-03T01:00:46.271Z,15.70
2018-09-03T01:03:13.604Z,15.60
2018-09-03T01:05:41.002Z,15.60
2018-09-03T01:08:08.368Z,15.60
2018-09-03T01:10:35.802Z,15.60
2018-09-03T01:13:03.195Z,15.60
2018-09-03T01:15:30.479Z,15.60
2018-09-03T01:17:59.061Z,15.60
2018-09-03T01:20:26.386Z,15.50
2018-09-03T01:22:53.806Z,15.40
2018-09-03T01:25:21.146Z,15.40
2018-09-03T01:27:48.613Z,15.40
2018-09-03T01:30:16.117Z,15.40
2018-09-03T01:32:43.475Z,15.40
2018-09-03T01:35:10.865Z,15.40
2018-09-03T01:37:38.236Z,15.50
2018-09-03T01:40:05.553Z,15.50
2018-09-03T01:42:33.024Z,15.50
2018-09-03T01:45:00.478Z,15.60
2018-09-03T01:47:27.890Z,15.60
2018-09-03T01:49:55.223Z,15.60
2018-09-03T01:52:22.622Z,15.60
2018-09-03T01:54:50.108Z,15.60
2018-09-03T01:57:17.545Z,15.60
2018-09-03T01:59:44.944Z,15.60
2018-09-03T02:02:12.323Z,15.70
2018-09-03T02:04:39.741Z,15.70
2018-09-03T02:07:07.133Z,15.70
2018-09-03T02:09:34.479Z,15.70
2018-09-03T02:12:01.927Z,15.60
2018-09-03T02:14:29.214Z,15.60
2018-09-03T02:16:56.623Z,15.70
2018-09-03T02:19:24.027Z,15.70
2018-09-03T02:21:51.453Z,15.60
2018-09-03T02:24:18.841Z,15.70
2018-09-03T02:26:46.297Z,15.60
2018-09-03T02:29:13.697Z,15.60
2018-09-03T02:31:41.083Z,15.70
2018-09-03T02:34:08.521Z,15.70
2018-09-03T02:36:36.025Z,15.70
2018-09-03T02:39:04.130Z,15.70
2018-09-03T02:41:31.569Z,15.80
2018-09-03T02:43:58.949Z,15.80
2018-09-03T02:46:26.334Z,15.70
2018-09-03T02:48:53.720Z,15.70
2018-09-03T02:51:21.152Z,15.70
2018-09-03T02:53:48.588Z,15.70
2018-09-03T02:56:15.966Z,15.70
2018-09-03T02:58:43.392Z,15.70
2018-09-03T03:01:10.856Z,15.60
2018-09-03T03:03:38.142Z,15.60
2018-09-03T03:06:05.532Z,15.70
2018-09-03T03:08:32.863Z,15.70
2018-09-03T03:11:00.219Z,15.70
2018-09-03T03:13:27.589Z,15.70
2018-09-03T03:15:54.985Z,15.70
2018-09-03T03:18:22.446Z,15.70
2018-09-03T03:20:49.906Z,15.70
2018-09-03T03:23:17.344Z,15.70
2018-09-03T03:25:44.718Z,15.70
2018-09-03T03:28:12.107Z,15.70
2018-09-03T03:30:39.450Z,15.70
2018-09-03T03:33:06.795Z,15.70
2018-09-03T03:35:34.283Z,15.70
2018-09-03T03:38:01.706Z,15.70
2018-09-03T03:40:29.118Z,15.70
2018-09-03T03:42:56.533Z,15.70
2018-09-03T03:45:24.014Z,15.70
2018-09-03T03:47:51.456Z,15.70
2018-09-03T03:50:18.897Z,15.70
2018-09-03T03:52:46.326Z,15.70
2018-09-03T03:55:13.863Z,15.80
2018-09-03T03:57:41.201Z,15.70
2018-09-03T04:00:08.617Z,15.70
2018-09-03T04:02:35.932Z,15.70
2018-09-03T04:05:03.491Z,15.70
2018-09-03T04:07:30.873Z,15.70
2018-09-03T04:09:58.301Z,15.60
2018-09-03T04:12:25.713Z,15.60
2018-09-03T04:14:53.150Z,15.50
2018-09-03T04:17:20.500Z,15.50
2018-09-03T04:19:55.275Z,15.60
2018-09-03T04:22:22.549Z,15.60
2018-09-03T04:24:49.906Z,15.60
2018-09-03T04:27:17.275Z,15.70
2018-09-03T04:29:44.652Z,15.70
2018-09-03T04:32:12.057Z,15.70
2018-09-03T04:34:39.450Z,15.70
2018-09-03T04:37:06.890Z,15.70
2018-09-03T04:39:34.259Z,15.80
2018-09-03T04:42:01.617Z,15.70
2018-09-03T04:44:29.061Z,15.70
2018-09-03T04:46:56.474Z,15.80
2018-09-03T04:49:23.895Z,15.80
2018-09-03T04:51:51.318Z,15.80
2018-09-03T04:54:18.707Z,15.70
2018-09-03T04:56:46.188Z,15.70
2018-09-03T04:59:13.606Z,15.80
2018-09-03T05:01:41.018Z,15.70
2018-09-03T05:04:08.452Z,15.70
2018-09-03T05:06:35.857Z,15.70
2018-09-03T05:09:03.560Z,15.80
2018-09-03T05:11:30.824Z,15.80
2018-09-03T05:13:58.321Z,15.80
2018-09-03T05:16:25.717Z,15.80
2018-09-03T05:18:52.984Z,15.80
2018-09-03T05:21:20.469Z,15.80
2018-09-03T05:23:47.905Z,15.90
2018-09-03T05:26:15.358Z,15.90
2018-09-03T05:28:42.751Z,15.90
2018-09-03T05:31:10.163Z,15.90
2018-09-03T05:33:37.545Z,16.00
2018-09-03T05:36:05.024Z,16.00
2018-09-03T05:38:32.606Z,16.00
2018-09-03T05:40:59.924Z,16.00
2018-09-03T05:43:27.436Z,16.00
2018-09-03T05:45:54.733Z,15.90
2018-09-03T05:48:22.163Z,15.90
2018-09-03T05:50:49.677Z,15.90
2018-09-03T05:53:16.952Z,15.90
2018-09-03T05:55:44.417Z,15.90
2018-09-03T05:58:11.851Z,15.90
2018-09-03T06:00:39.237Z,15.90
2018-09-03T06:03:06.622Z,15.90
2018-09-03T06:05:34.090Z,15.90
2018-09-03T06:08:01.580Z,15.90
2018-09-03T06:10:29.023Z,15.90
2018-09-03T06:12:56.418Z,15.80
2018-09-03T06:15:23.838Z,15.90
2018-09-03T06:17:51.341Z,15.90
2018-09-03T06:20:18.734Z,15.90
2018-09-03T06:22:46.102Z,15.90
2018-09-03T06:25:13.457Z,15.90
2018-09-03T06:27:40.800Z,15.80
2018-09-03T06:30:08.244Z,15.90
2018-09-03T06:32:35.706Z,15.90
2018-09-03T06:35:03.142Z,15.90
2018-09-03T06:37:30.587Z,15.80
2018-09-03T06:39:57.959Z,15.90
2018-09-03T06:42:25.415Z,15.80
2018-09-03T06:44:53.010Z,15.90
2018-09-03T06:47:20.522Z,16.00
2018-09-03T06:49:47.965Z,16.10
2018-09-03T06:52:15.442Z,16.10
2018-09-03T06:54:42.802Z,16.10
2018-09-03T06:57:10.210Z,16.20
2018-09-03T06:59:37.581Z,16.20
2018-09-03T07:02:05.498Z,16.30
2018-09-03T07:04:32.934Z,16.20
2018-09-03T07:07:00.924Z,16.30
2018-09-03T07:09:28.247Z,16.40
2018-09-03T07:11:55.698Z,16.40
2018-09-03T07:14:23.077Z,16.50
2018-09-03T07:16:50.474Z,16.60
2018-09-03T07:19:17.881Z,16.60
2018-09-03T07:21:45.225Z,16.60
2018-09-03T07:24:12.560Z,16.60
2018-09-03T07:26:39.987Z,16.60
2018-09-03T07:29:07.309Z,16.60
2018-09-03T07:31:34.794Z,16.70
2018-09-03T07:34:02.287Z,16.70
2018-09-03T07:36:29.648Z,16.70
2018-09-03T07:38:57.026Z,16.70
2018-09-03T07:41:24.466Z,16.60
2018-09-03T07:43:51.923Z,16.60
2018-09-03T07:46:19.321Z,16.60
2018-09-03T07:48:46.799Z,16.70
2018-09-03T07:51:14.241Z,16.70
2018-09-03T07:53:41.744Z,16.70
2018-09-03T07:56:09.089Z,16.80
2018-09-03T07:58:36.499Z,16.70
2018-09-03T08:01:03.909Z,16.80
2018-09-03T08:03:31.290Z,17.00
2018-09-03T08:05:58.771Z,17.10
2018-09-03T08:08:26.241Z,17.20
2018-09-03T08:10:53.725Z,17.30
2018-09-03T08:13:26.906Z,17.30
2018-09-03T08:15:54.426Z,17.40
2018-09-03T08:18:21.819Z,17.40
2018-09-03T08:20:49.179Z,17.40
2018-09-03T08:23:16.564Z,17.50
2018-09-03T08:25:43.969Z,17.40
2018-09-03T08:28:11.275Z,17.40
2018-09-03T08:30:38.685Z,17.40
2018-09-03T08:33:06.139Z,17.30
2018-09-03T08:35:33.635Z,17.20
2018-09-03T08:38:01.045Z,17.20
2018-09-03T08:40:28.367Z,17.20
2018-09-03T08:42:55.753Z,17.20
2018-09-03T08:45:23.235Z,17.20
2018-09-03T08:47:50.694Z,17.30
2018-09-03T08:50:18.172Z,17.40
2018-09-03T08:52:45.562Z,17.50
2018-09-03T08:55:13.043Z,17.60
2018-09-03T08:57:40.441Z,17.60
2018-09-03T09:00:07.965Z,17.60
2018-09-03T09:02:35.340Z,17.60
2018-09-03T09:05:02.920Z,17.70
2018-09-03T09:07:30.454Z,17.60
2018-09-03T09:09:57.901Z,17.60
2018-09-03T09:12:25.245Z,17.60
2018-09-03T09:14:52.674Z,17.60
2018-09-03T09:17:20.066Z,17.70
2018-09-03T09:19:47.472Z,17.70
2018-09-03T09:22:14.950Z,17.70
2018-09-03T09:24:42.351Z,17.80
2018-09-03T09:27:09.819Z,17.70
2018-09-03T09:29:37.150Z,17.80
2018-09-03T09:32:04.603Z,17.90
2018-09-03T09:34:32.015Z,17.90
2018-09-03T09:36:59.594Z,18.00
2018-09-03T09:39:27.190Z,18.00
2018-09-03T09:41:54.719Z,18.00
2018-09-03T09:44:22.142Z,18.00
2018-09-03T09:46:49.539Z,18.10
2018-09-03T09:49:17.050Z,18.10
2018-09-03T09:51:44.499Z,18.10
2018-09-03T09:54:11.939Z,18.00
2018-09-03T09:56:39.477Z,17.90
2018-09-03T09:59:07.138Z,17.90
2018-09-03T10:01:36.055Z,17.80
2018-09-03T10:04:03.720Z,17.80
2018-09-03T10:06:31.387Z,17.80
2018-09-03T10:08:58.961Z,17.80
2018-09-03T10:11:26.783Z,17.80
2018-09-03T10:13:54.156Z,17.80
2018-09-03T10:16:21.521Z,17.80
2018-09-03T10:18:48.901Z,17.70
2018-09-03T10:21:16.286Z,17.70
2018-09-03T10:23:43.711Z,17.70
2018-09-03T10:26:11.134Z,17.80
2018-09-03T10:28:38.525Z,17.70
2018-09-03T10:31:06.129Z,17.70
2018-09-03T10:33:33.407Z,17.70
2018-09-03T10:36:00.787Z,17.70
2018-09-03T10:38:28.221Z,17.60
2018-09-03T10:40:55.657Z,17.70
2018-09-03T10:43:23.019Z,17.60
2018-09-03T10:45:50.354Z,17.60
2018-09-03T10:48:17.817Z,17.70
2018-09-03T10:50:45.534Z,17.70
2018-09-03T10:53:13.079Z,17.70
2018-09-03T10:55:41.107Z,17.70
2018-09-03T10:58:09.195Z,17.70
2018-09-03T11:00:36.656Z,17.60
2018-09-03T11:03:04.252Z,17.60
2018-09-03T11:05:31.713Z,17.70
2018-09-03T11:07:59.133Z,17.70
2018-09-03T11:10:26.639Z,17.80
2018-09-03T11:12:54.065Z,17.80
2018-09-03T11:15:21.497Z,17.90
2018-09-03T11:17:48.864Z,18.00
2018-09-03T11:20:25.341Z,18.10
2018-09-03T11:22:52.746Z,18.20
2018-09-03T11:25:20.576Z,18.30
2018-09-03T11:27:49.335Z,18.30
2018-09-03T11:30:16.722Z,18.40
2018-09-03T11:32:48.638Z,18.40
2018-09-03T11:35:16.027Z,18.40
2018-09-03T11:37:43.365Z,18.40
2018-09-03T11:40:10.715Z,18.40
2018-09-03T11:42:37.955Z,18.40
2018-09-03T11:45:05.655Z,18.40
2018-09-03T11:47:33.107Z,18.30
2018-09-03T11:50:00.559Z,18.30
2018-09-03T11:52:28.083Z,18.30
2018-09-03T11:54:55.436Z,18.30
2018-09-03T11:57:22.929Z,18.30
2018-09-03T11:59:50.400Z,18.30
2018-09-03T12:02:17.784Z,18.30
2018-09-03T12:04:45.276Z,18.40
2018-09-03T12:07:12.685Z,18.40
2018-09-03T12:09:40.129Z,18.50
2018-09-03T12:12:07.574Z,18.50
2018-09-03T12:14:37.809Z,18.60
2018-09-03T12:17:05.809Z,18.50
2018-09-03T12:19:33.200Z,18.50
2018-09-03T12:22:00.718Z,18.40
2018-09-03T12:24:28.161Z,18.30
2018-09-03T12:26:55.561Z,18.30
2018-09-03T12:29:23.009Z,18.40
2018-09-03T12:31:50.402Z,18.40
2018-09-03T12:34:17.850Z,18.50
2018-09-03T12:36:45.279Z,18.60
2018-09-03T12:39:12.778Z,18.70
2018-09-03T12:41:40.246Z,18.70
2018-09-03T12:44:07.789Z,18.70
2018-09-03T12:46:35.134Z,18.70
2018-09-03T12:49:02.670Z,18.70
2018-09-03T12:51:29.997Z,18.70
2018-09-03T12:53:57.355Z,18.70
2018-09-03T12:56:24.766Z,18.70
2018-09-03T12:58:52.294Z,18.60
2018-09-03T13:01:19.781Z,18.60
2018-09-03T13:03:47.167Z,18.60
2018-09-03T13:06:14.485Z,18.60
2018-09-03T13:08:41.918Z,18.70
2018-09-03T13:11:09.358Z,18.80
2018-09-03T13:13:36.703Z,18.80
2018-09-03T13:16:04.319Z,18.80
2018-09-03T13:18:31.611Z,18.90
2018-09-03T13:20:58.997Z,19.00
2018-09-03T13:23:26.305Z,19.10
2018-09-03T13:25:53.727Z,19.20
2018-09-03T13:28:21.143Z,19.20
2018-09-03T13:30:48.560Z,19.10
2018-09-03T13:33:15.989Z,19.20
2018-09-03T13:35:43.329Z,19.20
2018-09-03T13:38:10.917Z,19.40
2018-09-03T13:40:38.633Z,19.40
2018-09-03T13:43:05.981Z,19.50
2018-09-03T13:45:33.445Z,19.70
2018-09-03T13:48:00.976Z,20.20
2018-09-03T13:50:28.453Z,20.60
2018-09-03T13:52:55.843Z,20.80
2018-09-03T13:55:23.311Z,21.00
2018-09-03T13:57:50.798Z,21.10
2018-09-03T14:00:18.234Z,21.00
2018-09-03T14:02:45.740Z,20.80
2018-09-03T14:05:13.121Z,20.50
2018-09-03T14:07:40.533Z,20.40
2018-09-03T14:10:08.084Z,20.40
2018-09-03T14:12:35.522Z,20.50
2018-09-03T14:15:02.946Z,20.40
2018-09-03T14:17:30.370Z,20.70
2018-09-03T14:19:58.146Z,21.10
2018-09-03T14:22:25.578Z,21.60
2018-09-03T14:24:53.046Z,21.60
2018-09-03T14:27:20.652Z,21.50
2018-09-03T14:29:48.111Z,21.50
2018-09-03T14:32:15.565Z,21.20
2018-09-03T14:34:42.946Z,21.10
2018-09-03T14:37:10.449Z,20.90
2018-09-03T14:39:37.842Z,20.80
2018-09-03T14:42:05.186Z,20.80
2018-09-03T14:44:32.682Z,20.80
2018-09-03T14:47:00.061Z,21.00
2018-09-03T14:49:27.609Z,21.00
2018-09-03T14:51:55.023Z,21.20
2018-09-03T14:54:22.337Z,21.20
2018-09-03T14:56:49.842Z,21.60
2018-09-03T14:59:17.235Z,21.70
2018-09-03T15:01:44.934Z,21.50
2018-09-03T15:04:12.512Z,21.60
2018-09-03T15:06:40.001Z,21.40
2018-09-03T15:09:08.596Z,21.40
2018-09-03T15:11:35.923Z,21.50
2018-09-03T15:14:03.374Z,21.40
2018-09-03T15:16:32.021Z,21.50
2018-09-03T15:19:00.911Z,21.60
2018-09-03T15:21:28.441Z,21.50
2018-09-03T15:23:55.926Z,21.60
2018-09-03T15:26:23.764Z,21.50
2018-09-03T15:28:51.712Z,21.50
2018-09-03T15:31:19.416Z,21.50
2018-09-03T15:33:47.051Z,21.40
2018-09-03T15:36:14.714Z,21.20
2018-09-03T15:38:42.341Z,21.20
2018-09-03T15:41:09.839Z,21.20
2018-09-03T15:43:37.414Z,21.10
2018-09-03T15:46:06.128Z,21.10
2018-09-03T15:48:33.655Z,21.20
2018-09-03T15:51:01.291Z,21.10
2018-09-03T15:53:28.751Z,21.00
2018-09-03T15:55:57.029Z,21.10
2018-09-03T15:58:24.532Z,21.00
2018-09-03T16:00:51.934Z,21.00
2018-09-03T16:03:19.304Z,21.00
2018-09-03T16:05:46.796Z,21.10
2018-09-03T16:08:14.174Z,21.10
2018-09-03T16:10:41.542Z,21.20
2018-09-03T16:13:08.947Z,21.10
2018-09-03T16:15:36.385Z,21.10
2018-09-03T16:18:03.850Z,21.00
2018-09-03T16:20:31.298Z,20.90
2018-09-03T16:22:58.699Z,20.80
2018-09-03T16:25:26.091Z,20.70
2018-09-03T16:27:53.644Z,20.70
2018-09-03T16:30:20.882Z,20.70
2018-09-03T16:32:48.344Z,20.60
2018-09-03T16:35:15.751Z,20.50
2018-09-03T16:37:43.208Z,20.50
2018-09-03T16:40:10.713Z,20.50
2018-09-03T16:42:38.260Z,20.40
2018-09-03T16:45:06.056Z,20.40
2018-09-03T16:47:33.623Z,20.30
2018-09-03T16:50:01.086Z,20.30
2018-09-03T16:52:28.513Z,20.20
2018-09-03T16:54:56.029Z,20.20
2018-09-03T16:57:23.408Z,20.20
2018-09-03T16:59:50.990Z,20.10
2018-09-03T17:02:18.362Z,20.10
2018-09-03T17:04:45.923Z,20.00
2018-09-03T17:07:13.550Z,20.00
2018-09-03T17:09:40.895Z,20.00
2018-09-03T17:12:08.347Z,19.90
2018-09-03T17:14:35.679Z,19.90
2018-09-03T17:17:03.136Z,19.90
2018-09-03T17:19:30.438Z,19.90
2018-09-03T17:21:57.851Z,19.80
2018-09-03T17:24:25.156Z,19.80
2018-09-03T17:26:52.725Z,19.70
2018-09-03T17:29:20.109Z,19.70
2018-09-03T17:31:47.495Z,19.70
2018-09-03T17:34:15.003Z,19.70
2018-09-03T17:36:42.463Z,19.70
2018-09-03T17:39:10.200Z,19.60
2018-09-03T17:41:37.819Z,19.60
2018-09-03T17:44:05.417Z,19.60
2018-09-03T17:46:33.024Z,19.50
2018-09-03T17:49:00.597Z,19.50
2018-09-03T17:51:28.172Z,19.40
2018-09-03T17:53:55.571Z,19.40
2018-09-03T17:56:23.115Z,19.40
2018-09-03T17:58:50.704Z,19.40
2018-09-03T18:01:18.284Z,19.30
2018-09-03T18:03:45.769Z,19.30
2018-09-03T18:06:13.299Z,19.30
2018-09-03T18:08:40.793Z,19.30
2018-09-03T18:11:08.161Z,19.20
2018-09-03T18:13:35.561Z,19.20
2018-09-03T18:16:03.023Z,19.20
2018-09-03T18:18:30.450Z,19.20
2018-09-03T18:20:57.949Z,19.20
2018-09-03T18:23:25.442Z,19.10
2018-09-03T18:25:52.819Z,19.10
2018-09-03T18:28:20.171Z,19.00
2018-09-03T18:30:47.646Z,19.00
2018-09-03T18:33:14.989Z,19.00
2018-09-03T18:35:42.475Z,19.00
2018-09-03T18:38:09.920Z,19.00
2018-09-03T18:40:37.858Z,19.00
2018-09-03T18:43:05.877Z,19.00
2018-09-03T18:45:33.494Z,18.90
2018-09-03T18:48:01.006Z,18.90
2018-09-03T18:50:28.576Z,18.90
2018-09-03T18:52:57.369Z,18.90
2018-09-03T18:55:25.596Z,18.90
2018-09-03T18:57:52.976Z,18.80
2018-09-03T19:00:20.528Z,18.80
2018-09-03T19:02:48.432Z,18.70
2018-09-03T19:05:15.833Z,18.70
2018-09-03T19:07:43.226Z,18.70
2018-09-03T19:10:10.672Z,18.60
2018-09-03T19:12:38.267Z,18.60
2018-09-03T19:15:06.581Z,18.70
2018-09-03T19:17:34.457Z,18.60
2018-09-03T19:20:02.231Z,18.60
2018-09-03T19:22:31.857Z,18.50
2018-09-03T19:24:59.261Z,18.50
2018-09-03T19:27:26.890Z,18.50
2018-09-03T19:29:55.343Z,18.50
2018-09-03T19:32:22.701Z,18.60
2018-09-03T19:34:50.227Z,18.50
2018-09-03T19:37:17.736Z,18.50
2018-09-03T19:39:45.211Z,18.50
2018-09-03T19:42:12.606Z,18.40
2018-09-03T19:44:40.245Z,18.40
2018-09-03T19:47:08.012Z,18.30
2018-09-03T19:49:35.404Z,18.30
2018-09-03T19:52:03.013Z,18.30
2018-09-03T19:54:32.954Z,18.30
2018-09-03T19:57:01.370Z,18.20
2018-09-03T19:59:32.335Z,18.20
2018-09-03T20:02:01.149Z,18.20
2018-09-03T20:04:30.093Z,18.20
2018-09-03T20:06:57.549Z,18.10
2018-09-03T20:09:27.106Z,18.10
2018-09-03T20:11:54.641Z,18.20
2018-09-03T20:14:22.238Z,18.20
2018-09-03T20:16:50.540Z,18.20
2018-09-03T20:19:18.077Z,18.10
2018-09-03T20:21:46.310Z,18.10
2018-09-03T20:24:14.912Z,18.10
2018-09-03T20:26:42.406Z,18.20
2018-09-03T20:29:10.704Z,18.20
2018-09-03T20:31:38.276Z,18.10
2018-09-03T20:34:07.467Z,18.10
2018-09-03T20:36:35.033Z,18.20
2018-09-03T20:39:07.697Z,18.10
2018-09-03T20:41:35.170Z,18.10
2018-09-03T20:44:02.749Z,18.10
2018-09-03T20:46:31.687Z,18.10
2018-09-03T20:48:59.216Z,18.10
2018-09-03T20:51:29.195Z,18.10
2018-09-03T20:53:56.512Z,18.10
2018-09-03T20:56:25.778Z,18.10
2018-09-03T20:58:54.415Z,18.10
2018-09-03T21:01:23.391Z,18.10
2018-09-03T21:03:50.915Z,18.10
2018-09-03T21:06:18.430Z,18.10
2018-09-03T21:08:47.010Z,18.10
2018-09-03T21:11:14.478Z,18.10
2018-09-03T21:13:43.159Z,18.10
2018-09-03T21:16:10.786Z,18.10
2018-09-03T21:18:38.892Z,18.10
2018-09-03T21:21:06.470Z,18.10
2018-09-03T21:23:35.680Z,18.10
2018-09-03T21:26:03.171Z,18.10
2018-09-03T21:28:33.573Z,18.00
2018-09-03T21:31:00.987Z,18.00
2018-09-03T21:33:29.989Z,18.00
2018-09-03T21:35:57.518Z,17.90
2018-09-03T21:38:25.755Z,17.90
2018-09-03T21:40:54.108Z,17.90
2018-09-03T21:43:21.561Z,17.90
2018-09-03T21:45:48.974Z,17.90
2018-09-03T21:48:17.563Z,18.00
2018-09-03T21:50:45.151Z,17.90
2018-09-03T21:53:13.419Z,17.90
2018-09-03T21:55:40.888Z,18.00
2018-09-03T21:58:10.400Z,17.90
2018-09-03T22:00:37.895Z,17.90
2018-09-03T22:03:07.316Z,17.90
2018-09-03T22:05:34.777Z,17.90
2018-09-03T22:08:03.499Z,17.90
2018-09-03T22:10:30.890Z,17.90
2018-09-03T22:12:59.191Z,17.90
2018-09-03T22:15:26.616Z,17.90
2018-09-03T22:17:54.091Z,17.90
2018-09-03T22:20:22.790Z,17.90
2018-09-03T22:22:50.207Z,17.90
2018-09-03T22:25:18.872Z,17.90
2018-09-03T22:27:46.357Z,17.90
2018-09-03T22:30:15.019Z,17.90
2018-09-03T22:32:42.387Z,17.90
2018-09-03T22:35:10.289Z,17.90
2018-09-03T22:37:37.681Z,17.90
2018-09-03T22:40:07.257Z,17.90
2018-09-03T22:42:34.725Z,17.90
2018-09-03T22:45:03.310Z,17.90
2018-09-03T22:47:30.701Z,17.90
2018-09-03T22:49:58.129Z,17.90
2018-09-03T22:52:26.499Z,17.90
2018-09-03T22:54:53.977Z,17.90
2018-09-03T22:57:23.604Z,17.90
2018-09-03T22:59:51.237Z,17.80
2018-09-03T23:02:18.668Z,17.90
2018-09-03T23:04:45.996Z,17.80
2018-09-03T23:07:13.455Z,17.80
2018-09-03T23:09:40.837Z,17.90
2018-09-03T23:12:08.173Z,17.90
2018-09-03T23:14:36.354Z,17.90
2018-09-03T23:17:03.857Z,17.90
2018-09-03T23:19:31.186Z,17.80
2018-09-03T23:21:58.542Z,17.80
2018-09-03T23:24:26.009Z,17.80
2018-09-03T23:26:53.405Z,17.80
2018-09-03T23:29:20.849Z,17.80
2018-09-03T23:31:48.307Z,17.80
2018-09-03T23:34:15.772Z,17.80
2018-09-03T23:36:43.126Z,17.80
2018-09-03T23:39:10.584Z,17.80
2018-09-03T23:41:37.965Z,17.80
2018-09-03T23:44:05.393Z,17.80
2018-09-03T23:46:32.773Z,17.80
2018-09-03T23:49:00.137Z,17.70
2018-09-03T23:51:27.510Z,17.80
2018-09-03T23:53:54.909Z,17.80
2018-09-03T23:56:22.314Z,17.80
2018-09-03T23:58:49.767Z,17.70
